Meteo Giornale » Osservazioni meteo Ungheria » Kecskemet

ore: 00:45 - Osservazioni Meteo Kecskemet
Lat. 46° 55' N Lon. 19° 45' E Alt. 113 metri s.l.m.

sereno Europe/Budapest

7 °C

Sereno

Temp. 24 Ore

3 °C

22 °C

Nord

3.7 Km/h

Dew point -2 °C

Umidità 52 %

Visibilità  10 Km

Il sole sorge alle ore 06:01

Il sole tramonta alle ore 19:23

Data e Ora Cielo e Fenomeni T °C DP °C Um. % Pres. hPa Vis. km Vento km/h
Oggi h: 00:45 sereno Sereno 7 -2 52 1025 10 N 3.7
Oggi h: 00:15 sereno Sereno 7 -2 52 1025 10 N 3.7
Ieri h: 23:45 sereno Sereno 8 -2 49 1025 10 NO 7.4
Ieri h: 23:15 sereno Sereno 9 -2 45 1025 10 N 3.7
Ieri h: 22:45 sereno Sereno 9 -2 45 1025 10 N 3.7
Ieri h: 22:15 sereno Sereno 10 -1 46 1025 10 O/NO 7.4
Ieri h: 21:45 sereno Sereno 11 -2 40 1025 10 N 3.7
Ieri h: 21:15 sereno Sereno 12 -3 34 1025 10 N 3.7
Ieri h: 20:45 sereno Sereno 13 -3 32 1025 10 N 0
Ieri h: 20:15 sereno Sereno 15 -3 28 1025 10 N 0
Ieri h: 19:45 sereno Sereno 15 -4 26 1025 10 N 0
Ieri h: 19:15 sereno Sereno 18 -3 23 1025 10 N 3.7
Ieri h: 18:45 sereno Sereno 19 -4 20 1025 10 S/SE 7.4
Ieri h: 17:45 sereno Sereno 21 -5 16 1025 10 N 7.4
Ieri h: 17:15 sereno Sereno 21 -6 15 1026 10 E/NE 7.4
Ieri h: 16:45 sereno Sereno 21 -5 16 1026 10 N 3.7
Ieri h: 16:15 sereno Sereno 21 -5 16 1026 10 N 3.7
Ieri h: 15:45 sereno Sereno 21 -5 16 1027 10 E/SE 11.1
Ieri h: 15:15 sereno Sereno 21 -4 18 1027 10 N 3.7
Ieri h: 14:45 sereno Sereno 22 -5 15 1028 10 N 3.7
Ieri h: 14:15 sereno Sereno 21 -4 18 1028 10 N 7.4
Ieri h: 13:45 sereno Sereno 21 -4 18 1028 10 N 3.7
Ieri h: 13:15 sereno Sereno 21 -5 16 1029 10 N 3.7
Ieri h: 12:45 sereno Sereno 20 -5 18 1029 10 E/SE 7.4
Ieri h: 12:15 sereno Sereno 19 -4 20 1030 10 N 3.7
Ieri h: 11:45 sereno Sereno 19 -5 19 1030 10 N 3.7
Ieri h: 11:15 sereno Sereno 18 -6 18 1031 10 N 3.7
Ieri h: 10:45 sereno Sereno 18 -4 22 1031 10 N 3.7
Ieri h: 10:15 sereno Sereno 17 -3 25 1031 10 O/NO 11.1
Ieri h: 09:45 sereno Sereno 16 -3 26 1031 10 O/NO 11.1
Ieri h: 09:15 sereno Sereno 14 -3 30 1031 10 O/NO 9.3
Ieri h: 08:45 sereno Sereno 13 -3 32 1031 10 O/NO 7.4
Ieri h: 08:15 sereno Sereno 10 -2 42 1031 10 N 3.7
Ieri h: 07:45 sereno Sereno 7 -2 52 1031 10 N 3.7
Ieri h: 07:15 sereno Sereno 4 -2 64 1031 10 N 3.7
Ieri h: 06:45 sereno Sereno 3 -4 59 1031 10 S/SO 7.4
Ieri h: 06:15 sereno Sereno 4 -4 55 1031 10 O/NO 7.4
Ieri h: 05:45 sereno Sereno 4 -4 55 1031 10 NO 7.4
Ieri h: 05:15 sereno Sereno 4 -4 55 1031 10 NO 7.4
Ieri h: 04:45 sereno Sereno 4 -4 55 1031 10 O/NO 7.4
Ieri h: 04:15 sereno Sereno 4 -4 55 1031 10 O/NO 7.4
Ieri h: 03:45 sereno Sereno 4 -4 55 1031 10 NO 7.4
Ieri h: 03:15 sereno Sereno 4 -4 55 1031 10 NO 7.4
Ieri h: 02:45 sereno Sereno 4 -3 60 1032 10 NO 7.4
Ieri h: 02:15 sereno Sereno 4 -3 60 1032 10 N 3.7
Ieri h: 01:45 sereno Sereno 5 -3 56 1032 10 N 3.7